sensor_id;sensor_type;location;lat;lon;timestamp;pressure;altitude;pressure_sealevel;temperature;humidity
21185;BME280;18176;49.502;11.754;2023-03-14T00:00:36;95189.69;;;11.65;99.37
21185;BME280;18176;49.502;11.754;2023-03-14T00:04:37;95194.44;;;11.73;98.19
21185;BME280;18176;49.502;11.754;2023-03-14T00:08:41;95213.75;;;11.45;99.58
21185;BME280;18176;49.502;11.754;2023-03-14T00:12:42;95194.19;;;11.36;99.54
21185;BME280;18176;49.502;11.754;2023-03-14T00:16:46;95207.47;;;11.31;99.38
21185;BME280;18176;49.502;11.754;2023-03-14T00:20:46;95216.03;;;11.23;99.26
21185;BME280;18176;49.502;11.754;2023-03-14T00:24:50;95205.00;;;11.01;100.00
21185;BME280;18176;49.502;11.754;2023-03-14T00:28:53;95227.78;;;11.07;99.26
21185;BME280;18176;49.502;11.754;2023-03-14T00:32:53;95220.41;;;10.99;100.00
21185;BME280;18176;49.502;11.754;2023-03-14T00:36:54;95224.66;;;11.00;98.79
21185;BME280;18176;49.502;11.754;2023-03-14T00:40:58;95224.13;;;10.98;99.14
21185;BME280;18176;49.502;11.754;2023-03-14T00:44:58;95263.28;;;11.06;98.28
21185;BME280;18176;49.502;11.754;2023-03-14T00:48:59;95269.13;;;11.03;98.35
21185;BME280;18176;49.502;11.754;2023-03-14T00:52:59;95275.22;;;11.03;98.16
21185;BME280;18176;49.502;11.754;2023-03-14T00:57:02;95281.31;;;11.04;98.17
21185;BME280;18176;49.502;11.754;2023-03-14T01:01:07;95286.66;;;10.99;98.73
21185;BME280;18176;49.502;11.754;2023-03-14T01:05:10;95300.19;;;10.92;99.19
21185;BME280;18176;49.502;11.754;2023-03-14T01:09:12;95287.22;;;10.91;96.81
21185;BME280;18176;49.502;11.754;2023-03-14T01:13:17;95306.81;;;10.95;94.35
21185;BME280;18176;49.502;11.754;2023-03-14T01:17:17;95271.81;;;10.98;93.85
21185;BME280;18176;49.502;11.754;2023-03-14T01:21:22;95272.03;;;11.06;94.17
21185;BME280;18176;49.502;11.754;2023-03-14T01:25:23;95299.88;;;10.99;94.54
21185;BME280;18176;49.502;11.754;2023-03-14T01:29:27;95320.03;;;11.05;94.04
21185;BME280;18176;49.502;11.754;2023-03-14T01:33:27;95318.97;;;11.01;93.65
21185;BME280;18176;49.502;11.754;2023-03-14T01:37:28;95280.78;;;11.07;92.32
21185;BME280;18176;49.502;11.754;2023-03-14T01:41:29;95250.09;;;10.96;92.76
21185;BME280;18176;49.502;11.754;2023-03-14T01:46:16;95222.56;;;10.92;93.14
21185;BME280;18176;49.502;11.754;2023-03-14T01:50:19;95170.38;;;10.87;94.10
21185;BME280;18176;49.502;11.754;2023-03-14T01:54:25;95190.56;;;10.83;94.31
21185;BME280;18176;49.502;11.754;2023-03-14T01:58:30;95172.28;;;10.82;94.10
21185;BME280;18176;49.502;11.754;2023-03-14T02:02:35;95179.94;;;10.88;93.92
21185;BME280;18176;49.502;11.754;2023-03-14T02:06:46;95203.50;;;10.85;94.23
21185;BME280;18176;49.502;11.754;2023-03-14T02:10:52;95192.34;;;10.98;94.21
21185;BME280;18176;49.502;11.754;2023-03-14T02:15:07;95214.03;;;11.05;93.52
21185;BME280;18176;49.502;11.754;2023-03-14T02:24:24;95226.78;;;10.93;94.42
21185;BME280;18176;49.502;11.754;2023-03-14T02:28:35;95240.56;;;10.95;94.97
21185;BME280;18176;49.502;11.754;2023-03-14T02:32:40;95243.91;;;11.10;94.19
21185;BME280;18176;49.502;11.754;2023-03-14T02:36:44;95239.22;;;10.97;93.95
21185;BME280;18176;49.502;11.754;2023-03-14T02:40:45;95236.81;;;11.01;93.80
21185;BME280;18176;49.502;11.754;2023-03-14T02:44:55;95233.09;;;11.07;92.94
21185;BME280;18176;49.502;11.754;2023-03-14T02:49:03;95218.75;;;11.08;92.61
21185;BME280;18176;49.502;11.754;2023-03-14T02:53:06;95225.13;;;11.12;92.29
21185;BME280;18176;49.502;11.754;2023-03-14T02:57:07;95221.16;;;11.09;91.31
21185;BME280;18176;49.502;11.754;2023-03-14T03:01:11;95217.09;;;11.17;89.98
21185;BME280;18176;49.502;11.754;2023-03-14T03:05:11;95204.19;;;11.05;90.33
21185;BME280;18176;49.502;11.754;2023-03-14T03:09:11;95195.97;;;11.07;88.53
21185;BME280;18176;49.502;11.754;2023-03-14T03:13:12;95201.03;;;11.03;88.86
21185;BME280;18176;49.502;11.754;2023-03-14T03:17:17;95176.34;;;11.08;88.52
21185;BME280;18176;49.502;11.754;2023-03-14T03:21:18;95176.91;;;11.05;88.49
21185;BME280;18176;49.502;11.754;2023-03-14T03:25:20;95179.84;;;10.98;88.76
21185;BME280;18176;49.502;11.754;2023-03-14T03:29:21;95196.56;;;10.94;89.29
21185;BME280;18176;49.502;11.754;2023-03-14T03:33:25;95170.66;;;10.91;88.59
21185;BME280;18176;49.502;11.754;2023-03-14T03:37:26;95166.84;;;11.02;88.53
21185;BME280;18176;49.502;11.754;2023-03-14T03:41:27;95175.69;;;10.87;88.51
21185;BME280;18176;49.502;11.754;2023-03-14T03:45:31;95163.78;;;10.85;88.08
21185;BME280;18176;49.502;11.754;2023-03-14T03:49:37;95141.47;;;10.96;87.26
21185;BME280;18176;49.502;11.754;2023-03-14T03:53:40;95147.84;;;10.90;87.25
21185;BME280;18176;49.502;11.754;2023-03-14T03:57:43;95153.69;;;10.87;87.06
21185;BME280;18176;49.502;11.754;2023-03-14T04:01:44;95168.50;;;10.93;86.65
21185;BME280;18176;49.502;11.754;2023-03-14T04:05:58;95159.47;;;10.94;86.54
21185;BME280;18176;49.502;11.754;2023-03-14T04:10:00;95163.75;;;10.90;86.12
21185;BME280;18176;49.502;11.754;2023-03-14T04:14:08;95146.50;;;10.92;86.35
21185;BME280;18176;49.502;11.754;2023-03-14T04:18:09;95144.16;;;10.91;85.58
21185;BME280;18176;49.502;11.754;2023-03-14T04:22:14;95133.56;;;10.91;86.08
21185;BME280;18176;49.502;11.754;2023-03-14T04:26:18;95136.94;;;10.96;84.89
21185;BME280;18176;49.502;11.754;2023-03-14T04:30:19;95128.75;;;10.93;85.04
21185;BME280;18176;49.502;11.754;2023-03-14T04:34:26;95120.06;;;10.82;85.03
21185;BME280;18176;49.502;11.754;2023-03-14T04:38:30;95112.41;;;10.81;86.22
21185;BME280;18176;49.502;11.754;2023-03-14T04:42:31;95101.03;;;10.80;86.12
21185;BME280;18176;49.502;11.754;2023-03-14T04:46:31;95104.44;;;10.86;85.73
21185;BME280;18176;49.502;11.754;2023-03-14T04:50:35;95102.63;;;10.81;86.06
21185;BME280;18176;49.502;11.754;2023-03-14T04:54:38;95100.84;;;10.67;87.13
21185;BME280;18176;49.502;11.754;2023-03-14T04:58:39;95096.66;;;10.61;87.64
21185;BME280;18176;49.502;11.754;2023-03-14T05:02:40;95111.53;;;10.56;87.47
21185;BME280;18176;49.502;11.754;2023-03-14T05:06:59;95101.94;;;10.61;87.35
21185;BME280;18176;49.502;11.754;2023-03-14T05:11:19;95118.91;;;10.54;87.80
21185;BME280;18176;49.502;11.754;2023-03-14T05:15:40;95111.75;;;10.60;87.49
21185;BME280;18176;49.502;11.754;2023-03-14T05:19:59;95110.47;;;10.52;87.15
21185;BME280;18176;49.502;11.754;2023-03-14T05:24:43;95109.91;;;10.55;87.10
21185;BME280;18176;49.502;11.754;2023-03-14T05:29:05;95104.00;;;10.69;86.69
21185;BME280;18176;49.502;11.754;2023-03-14T05:33:19;95107.78;;;10.57;87.19
21185;BME280;18176;49.502;11.754;2023-03-14T05:37:31;95104.63;;;10.55;86.85
21185;BME280;18176;49.502;11.754;2023-03-14T05:41:47;95086.72;;;10.37;87.90
21185;BME280;18176;49.502;11.754;2023-03-14T05:46:14;95078.16;;;10.55;87.44
21185;BME280;18176;49.502;11.754;2023-03-14T05:50:35;95070.22;;;10.50;87.55
21185;BME280;18176;49.502;11.754;2023-03-14T05:54:42;95067.91;;;10.39;87.83
21185;BME280;18176;49.502;11.754;2023-03-14T05:59:05;95047.00;;;10.42;87.97
21185;BME280;18176;49.502;11.754;2023-03-14T06:03:30;95062.84;;;10.47;87.97
21185;BME280;18176;49.502;11.754;2023-03-14T06:07:30;95066.75;;;10.55;87.38
21185;BME280;18176;49.502;11.754;2023-03-14T06:11:32;95070.97;;;10.61;86.45
21185;BME280;18176;49.502;11.754;2023-03-14T06:15:34;95064.34;;;10.64;86.08
21185;BME280;18176;49.502;11.754;2023-03-14T06:19:38;95074.31;;;10.77;85.09
21185;BME280;18176;49.502;11.754;2023-03-14T06:23:42;95066.81;;;10.89;85.29
21185;BME280;18176;49.502;11.754;2023-03-14T06:27:43;95070.72;;;10.91;84.82
21185;BME280;18176;49.502;11.754;2023-03-14T06:31:44;95057.94;;;10.70;85.03
21185;BME280;18176;49.502;11.754;2023-03-14T06:35:50;95075.00;;;10.87;84.79
21185;BME280;18176;49.502;11.754;2023-03-14T06:39:51;95070.31;;;10.79;85.04
21185;BME280;18176;49.502;11.754;2023-03-14T06:44:10;95075.31;;;10.81;84.80
21185;BME280;18176;49.502;11.754;2023-03-14T06:48:10;95082.69;;;10.89;84.58
21185;BME280;18176;49.502;11.754;2023-03-14T06:52:21;95079.28;;;11.17;83.39
21185;BME280;18176;49.502;11.754;2023-03-14T06:56:21;95084.72;;;11.30;82.28
21185;BME280;18176;49.502;11.754;2023-03-14T07:00:24;95074.56;;;11.14;82.49
21185;BME280;18176;49.502;11.754;2023-03-14T07:04:27;95076.75;;;11.02;82.85
21185;BME280;18176;49.502;11.754;2023-03-14T07:08:33;95070.19;;;11.28;81.88
21185;BME280;18176;49.502;11.754;2023-03-14T07:12:33;95071.56;;;11.20;81.71
21185;BME280;18176;49.502;11.754;2023-03-14T07:16:34;95072.44;;;11.40;81.20
21185;BME280;18176;49.502;11.754;2023-03-14T07:20:37;95058.81;;;11.51;80.70
21185;BME280;18176;49.502;11.754;2023-03-14T07:24:41;95066.75;;;11.80;78.72
21185;BME280;18176;49.502;11.754;2023-03-14T07:28:41;95077.25;;;12.14;77.49
21185;BME280;18176;49.502;11.754;2023-03-14T07:32:46;95072.75;;;12.33;76.40
21185;BME280;18176;49.502;11.754;2023-03-14T07:36:49;95067.03;;;12.44;73.46
21185;BME280;18176;49.502;11.754;2023-03-14T07:40:58;95075.38;;;12.56;73.23
21185;BME280;18176;49.502;11.754;2023-03-14T07:45:01;95069.19;;;12.61;72.21
21185;BME280;18176;49.502;11.754;2023-03-14T07:49:01;95069.03;;;12.34;74.53
21185;BME280;18176;49.502;11.754;2023-03-14T07:53:02;95080.41;;;12.16;73.11
21185;BME280;18176;49.502;11.754;2023-03-14T07:57:06;95085.72;;;12.16;74.62
21185;BME280;18176;49.502;11.754;2023-03-14T08:01:10;95093.44;;;11.65;75.41
21185;BME280;18176;49.502;11.754;2023-03-14T08:05:13;95094.19;;;11.70;75.38
21185;BME280;18176;49.502;11.754;2023-03-14T08:09:15;95101.22;;;11.85;74.94
21185;BME280;18176;49.502;11.754;2023-03-14T08:13:18;95094.41;;;11.97;74.30
21185;BME280;18176;49.502;11.754;2023-03-14T08:17:18;95087.84;;;12.14;73.63
21185;BME280;18176;49.502;11.754;2023-03-14T08:21:19;95080.19;;;12.12;72.75
21185;BME280;18176;49.502;11.754;2023-03-14T08:25:20;95080.34;;;12.21;72.45
21185;BME280;18176;49.502;11.754;2023-03-14T08:29:23;95076.56;;;12.27;72.39
21185;BME280;18176;49.502;11.754;2023-03-14T08:33:24;95076.47;;;12.13;72.91
21185;BME280;18176;49.502;11.754;2023-03-14T08:37:25;95071.94;;;12.14;72.98
21185;BME280;18176;49.502;11.754;2023-03-14T08:41:25;95081.53;;;12.10;72.45
21185;BME280;18176;49.502;11.754;2023-03-14T08:45:29;95070.03;;;12.38;71.19
21185;BME280;18176;49.502;11.754;2023-03-14T08:49:29;95077.56;;;12.31;71.94
21185;BME280;18176;49.502;11.754;2023-03-14T08:53:29;95070.19;;;12.46;70.09
21185;BME280;18176;49.502;11.754;2023-03-14T08:57:30;95074.94;;;12.68;70.22
21185;BME280;18176;49.502;11.754;2023-03-14T09:01:33;95066.88;;;12.92;68.25
21185;BME280;18176;49.502;11.754;2023-03-14T09:05:34;95079.03;;;12.79;67.82
21185;BME280;18176;49.502;11.754;2023-03-14T09:09:34;95074.28;;;12.76;68.27
21185;BME280;18176;49.502;11.754;2023-03-14T09:13:35;95068.41;;;12.79;67.95
21185;BME280;18176;49.502;11.754;2023-03-14T09:17:38;95062.22;;;12.65;69.03
21185;BME280;18176;49.502;11.754;2023-03-14T09:21:38;95075.00;;;12.63;67.76
21185;BME280;18176;49.502;11.754;2023-03-14T09:25:38;95050.03;;;13.15;67.40
21185;BME280;18176;49.502;11.754;2023-03-14T09:29:39;95066.84;;;13.43;66.08
21185;BME280;18176;49.502;11.754;2023-03-14T09:33:42;95072.63;;;13.77;64.76
21185;BME280;18176;49.502;11.754;2023-03-14T09:37:42;95072.22;;;13.56;64.50
21185;BME280;18176;49.502;11.754;2023-03-14T09:41:47;95089.31;;;13.36;64.74
21185;BME280;18176;49.502;11.754;2023-03-14T09:45:52;95062.97;;;13.54;65.13
21185;BME280;18176;49.502;11.754;2023-03-14T09:49:57;95057.66;;;13.81;64.58
21185;BME280;18176;49.502;11.754;2023-03-14T09:54:01;95061.25;;;13.30;64.60
21185;BME280;18176;49.502;11.754;2023-03-14T09:58:09;95060.88;;;13.51;65.27
21185;BME280;18176;49.502;11.754;2023-03-14T10:02:22;95067.81;;;14.83;61.12
21185;BME280;18176;49.502;11.754;2023-03-14T10:06:30;95063.13;;;15.24;58.38
21185;BME280;18176;49.502;11.754;2023-03-14T10:10:32;95058.25;;;15.04;59.10
21185;BME280;18176;49.502;11.754;2023-03-14T10:14:35;95059.59;;;15.15;58.46
21185;BME280;18176;49.502;11.754;2023-03-14T10:18:37;95060.69;;;15.14;58.10
21185;BME280;18176;49.502;11.754;2023-03-14T10:22:40;95050.00;;;15.14;58.45
21185;BME280;18176;49.502;11.754;2023-03-14T10:26:42;95049.25;;;15.22;58.82
21185;BME280;18176;49.502;11.754;2023-03-14T10:30:45;95062.66;;;14.23;59.67
21185;BME280;18176;49.502;11.754;2023-03-14T10:35:06;95061.53;;;14.02;61.39
21185;BME280;18176;49.502;11.754;2023-03-14T10:39:30;95057.16;;;14.20;62.04
21185;BME280;18176;49.502;11.754;2023-03-14T10:43:36;95043.88;;;13.79;62.18
21185;BME280;18176;49.502;11.754;2023-03-14T10:47:49;95067.50;;;13.80;63.44
21185;BME280;18176;49.502;11.754;2023-03-14T10:51:50;95072.19;;;13.43;64.28
21185;BME280;18176;49.502;11.754;2023-03-14T10:55:57;95070.41;;;13.52;63.07
21185;BME280;18176;49.502;11.754;2023-03-14T10:59:59;95069.06;;;13.68;63.84
21185;BME280;18176;49.502;11.754;2023-03-14T11:04:23;95050.84;;;14.29;61.97
21185;BME280;18176;49.502;11.754;2023-03-14T11:08:37;95037.94;;;14.94;59.86
21185;BME280;18176;49.502;11.754;2023-03-14T11:13:03;95042.88;;;15.01;60.25
21185;BME280;18176;49.502;11.754;2023-03-14T11:17:20;95034.97;;;14.96;59.08
21185;BME280;18176;49.502;11.754;2023-03-14T11:21:32;95029.88;;;14.86;59.77
21185;BME280;18176;49.502;11.754;2023-03-14T11:25:46;95046.13;;;15.20;57.01
21185;BME280;18176;49.502;11.754;2023-03-14T11:29:56;95037.69;;;15.04;57.88
21185;BME280;18176;49.502;11.754;2023-03-14T11:34:08;95020.66;;;14.69;59.03
21185;BME280;18176;49.502;11.754;2023-03-14T11:38:27;95023.09;;;14.44;59.47
21185;BME280;18176;49.502;11.754;2023-03-14T11:42:31;95019.56;;;14.21;60.70
21185;BME280;18176;49.502;11.754;2023-03-14T11:46:39;95016.63;;;14.23;59.44
21185;BME280;18176;49.502;11.754;2023-03-14T11:50:44;95018.41;;;14.00;61.16
21185;BME280;18176;49.502;11.754;2023-03-14T11:54:52;95016.13;;;13.93;62.86
21185;BME280;18176;49.502;11.754;2023-03-14T11:59:01;95020.41;;;13.81;64.09
21185;BME280;18176;49.502;11.754;2023-03-14T12:03:17;95025.31;;;13.60;67.50
21185;BME280;18176;49.502;11.754;2023-03-14T12:07:25;95031.72;;;13.13;69.76
21185;BME280;18176;49.502;11.754;2023-03-14T12:11:42;95035.34;;;12.85;72.07
21185;BME280;18176;49.502;11.754;2023-03-14T12:15:50;95034.78;;;12.51;75.62
21185;BME280;18176;49.502;11.754;2023-03-14T12:20:15;95032.56;;;12.39;78.22
21185;BME280;18176;49.502;11.754;2023-03-14T12:24:22;95051.91;;;12.45;79.61
21185;BME280;18176;49.502;11.754;2023-03-14T12:28:31;95021.81;;;13.00;76.98
21185;BME280;18176;49.502;11.754;2023-03-14T12:32:32;95007.97;;;13.76;74.54
21185;BME280;18176;49.502;11.754;2023-03-14T12:37:19;95002.13;;;15.09;67.73
21185;BME280;18176;49.502;11.754;2023-03-14T12:41:29;94993.00;;;16.19;61.91
21185;BME280;18176;49.502;11.754;2023-03-14T12:45:37;94992.22;;;16.18;59.03
21185;BME280;18176;49.502;11.754;2023-03-14T12:49:41;94985.38;;;15.17;61.69
21185;BME280;18176;49.502;11.754;2023-03-14T12:54:29;94983.31;;;15.14;63.03
21185;BME280;18176;49.502;11.754;2023-03-14T12:58:44;94975.19;;;14.66;62.94
21185;BME280;18176;49.502;11.754;2023-03-14T13:02:51;94986.38;;;14.54;63.28
21185;BME280;18176;49.502;11.754;2023-03-14T13:06:57;94984.41;;;14.46;63.26
21185;BME280;18176;49.502;11.754;2023-03-14T13:11:06;94994.13;;;14.15;64.89
21185;BME280;18176;49.502;11.754;2023-03-14T13:15:21;94978.47;;;14.49;64.11
21185;BME280;18176;49.502;11.754;2023-03-14T13:19:27;94980.19;;;14.45;63.45
21185;BME280;18176;49.502;11.754;2023-03-14T13:23:30;94976.09;;;14.61;64.00
21185;BME280;18176;49.502;11.754;2023-03-14T13:27:39;94970.56;;;15.33;61.44
21185;BME280;18176;49.502;11.754;2023-03-14T13:31:44;94973.03;;;14.76;61.19
21185;BME280;18176;49.502;11.754;2023-03-14T13:35:49;94953.53;;;14.67;62.01
21185;BME280;18176;49.502;11.754;2023-03-14T13:39:52;94954.88;;;14.78;60.81
21185;BME280;18176;49.502;11.754;2023-03-14T13:44:03;94954.41;;;14.54;62.28
21185;BME280;18176;49.502;11.754;2023-03-14T13:48:08;94974.50;;;14.60;62.89
21185;BME280;18176;49.502;11.754;2023-03-14T13:52:29;95021.53;;;14.29;64.35
21185;BME280;18176;49.502;11.754;2023-03-14T13:56:33;95059.91;;;13.14;76.57
21185;BME280;18176;49.502;11.754;2023-03-14T14:00:42;95072.00;;;11.33;85.28
21185;BME280;18176;49.502;11.754;2023-03-14T14:04:46;95056.97;;;11.23;86.30
21185;BME280;18176;49.502;11.754;2023-03-14T14:08:50;95075.53;;;11.23;86.97
21185;BME280;18176;49.502;11.754;2023-03-14T14:12:56;95072.50;;;11.01;87.09
21185;BME280;18176;49.502;11.754;2023-03-14T14:17:01;95083.19;;;10.96;89.35
21185;BME280;18176;49.502;11.754;2023-03-14T14:21:04;95084.19;;;11.00;91.20
21185;BME280;18176;49.502;11.754;2023-03-14T14:25:12;95103.56;;;10.95;89.86
21185;BME280;18176;49.502;11.754;2023-03-14T14:29:26;95092.81;;;10.82;89.11
21185;BME280;18176;49.502;11.754;2023-03-14T14:33:39;95103.47;;;10.72;91.10
21185;BME280;18176;49.502;11.754;2023-03-14T14:37:43;95094.38;;;10.83;91.01
21185;BME280;18176;49.502;11.754;2023-03-14T14:41:45;95099.78;;;10.68;90.43
21185;BME280;18176;49.502;11.754;2023-03-14T14:45:51;95108.31;;;10.54;92.77
21185;BME280;18176;49.502;11.754;2023-03-14T14:49:59;95101.84;;;10.76;92.71
21185;BME280;18176;49.502;11.754;2023-03-14T14:54:09;95108.28;;;10.65;93.05
21185;BME280;18176;49.502;11.754;2023-03-14T14:58:23;95143.22;;;10.67;93.44
21185;BME280;18176;49.502;11.754;2023-03-14T15:02:36;95157.09;;;10.43;94.79
21185;BME280;18176;49.502;11.754;2023-03-14T15:06:50;95174.00;;;10.52;93.09
21185;BME280;18176;49.502;11.754;2023-03-14T15:10:51;95197.91;;;10.37;90.55
21185;BME280;18176;49.502;11.754;2023-03-14T15:14:52;95234.44;;;10.40;88.20
21185;BME280;18176;49.502;11.754;2023-03-14T15:18:57;95232.13;;;9.99;90.72
21185;BME280;18176;49.502;11.754;2023-03-14T15:23:16;95270.22;;;9.82;91.88
21185;BME280;18176;49.502;11.754;2023-03-14T15:27:18;95285.78;;;9.39;90.23
21185;BME280;18176;49.502;11.754;2023-03-14T15:31:20;95318.47;;;9.02;89.59
21185;BME280;18176;49.502;11.754;2023-03-14T15:35:21;95303.00;;;8.69;88.10
21185;BME280;18176;49.502;11.754;2023-03-14T15:39:24;95350.03;;;8.77;88.53
21185;BME280;18176;49.502;11.754;2023-03-14T15:43:24;95350.03;;;8.72;87.44
21185;BME280;18176;49.502;11.754;2023-03-14T15:47:25;95341.50;;;8.60;88.52
21185;BME280;18176;49.502;11.754;2023-03-14T15:51:25;95344.94;;;8.66;88.40
21185;BME280;18176;49.502;11.754;2023-03-14T15:55:30;95359.81;;;8.35;89.28
21185;BME280;18176;49.502;11.754;2023-03-14T15:59:33;95382.91;;;8.23;92.79
21185;BME280;18176;49.502;11.754;2023-03-14T16:03:35;95402.03;;;8.08;93.17
21185;BME280;18176;49.502;11.754;2023-03-14T16:07:40;95416.50;;;8.01;91.55
21185;BME280;18176;49.502;11.754;2023-03-14T16:11:46;95437.94;;;8.09;92.70
21185;BME280;18176;49.502;11.754;2023-03-14T16:15:55;95438.28;;;7.91;92.61
21185;BME280;18176;49.502;11.754;2023-03-14T16:19:55;95459.47;;;8.01;93.73
21185;BME280;18176;49.502;11.754;2023-03-14T16:23:56;95477.09;;;7.96;92.05
21185;BME280;18176;49.502;11.754;2023-03-14T16:27:59;95485.44;;;7.88;92.60
21185;BME280;18176;49.502;11.754;2023-03-14T16:32:07;95544.44;;;7.82;89.91
21185;BME280;18176;49.502;11.754;2023-03-14T16:36:11;95523.97;;;7.67;90.12
21185;BME280;18176;49.502;11.754;2023-03-14T16:40:12;95513.59;;;7.60;91.07
21185;BME280;18176;49.502;11.754;2023-03-14T16:44:16;95527.16;;;7.47;92.06
21185;BME280;18176;49.502;11.754;2023-03-14T16:48:17;95512.81;;;7.38;93.13
21185;BME280;18176;49.502;11.754;2023-03-14T16:52:19;95545.31;;;7.65;93.06
21185;BME280;18176;49.502;11.754;2023-03-14T16:56:19;95549.78;;;7.65;93.84
21185;BME280;18176;49.502;11.754;2023-03-14T17:00:23;95567.94;;;7.61;93.77
21185;BME280;18176;49.502;11.754;2023-03-14T17:04:23;95583.81;;;7.66;94.46
21185;BME280;18176;49.502;11.754;2023-03-14T17:08:24;95581.44;;;7.48;94.46
21185;BME280;18176;49.502;11.754;2023-03-14T17:12:24;95595.47;;;7.70;94.11
21185;BME280;18176;49.502;11.754;2023-03-14T17:16:28;95653.72;;;7.52;94.13
21185;BME280;18176;49.502;11.754;2023-03-14T17:20:31;95625.22;;;7.49;91.31
21185;BME280;18176;49.502;11.754;2023-03-14T17:24:32;95629.34;;;7.62;91.01
21185;BME280;18176;49.502;11.754;2023-03-14T17:28:34;95645.94;;;7.62;90.92
21185;BME280;18176;49.502;11.754;2023-03-14T17:32:36;95655.63;;;7.73;90.52
21185;BME280;18176;49.502;11.754;2023-03-14T17:36:37;95652.91;;;7.52;87.34
21185;BME280;18176;49.502;11.754;2023-03-14T17:40:37;95653.31;;;7.44;85.26
21185;BME280;18176;49.502;11.754;2023-03-14T17:44:38;95664.66;;;7.28;85.22
21185;BME280;18176;49.502;11.754;2023-03-14T17:48:43;95677.06;;;7.27;83.01
21185;BME280;18176;49.502;11.754;2023-03-14T17:52:44;95687.09;;;7.30;82.30
21185;BME280;18176;49.502;11.754;2023-03-14T17:56:45;95705.06;;;7.33;82.36
21185;BME280;18176;49.502;11.754;2023-03-14T18:00:46;95725.19;;;7.39;80.98
21185;BME280;18176;49.502;11.754;2023-03-14T18:04:52;95749.31;;;7.48;82.70
21185;BME280;18176;49.502;11.754;2023-03-14T18:08:55;95759.44;;;7.39;82.87
21185;BME280;18176;49.502;11.754;2023-03-14T18:12:57;95774.34;;;6.89;85.41
21185;BME280;18176;49.502;11.754;2023-03-14T18:16:58;95796.09;;;6.84;86.57
21185;BME280;18176;49.502;11.754;2023-03-14T18:21:04;95792.81;;;6.66;87.86
21185;BME280;18176;49.502;11.754;2023-03-14T18:25:08;95798.69;;;6.56;89.23
21185;BME280;18176;49.502;11.754;2023-03-14T18:29:11;95812.66;;;6.33;88.91
21185;BME280;18176;49.502;11.754;2023-03-14T18:33:13;95794.19;;;6.28;88.50
21185;BME280;18176;49.502;11.754;2023-03-14T18:37:19;95816.22;;;6.51;88.34
21185;BME280;18176;49.502;11.754;2023-03-14T18:41:24;95805.34;;;6.35;87.15
21185;BME280;18176;49.502;11.754;2023-03-14T18:45:27;95841.38;;;6.70;85.91
21185;BME280;18176;49.502;11.754;2023-03-14T18:49:31;95849.47;;;6.57;85.80
21185;BME280;18176;49.502;11.754;2023-03-14T18:53:36;95862.63;;;6.57;86.44
21185;BME280;18176;49.502;11.754;2023-03-14T18:57:39;95879.34;;;6.51;86.36
21185;BME280;18176;49.502;11.754;2023-03-14T19:01:45;95894.91;;;6.64;87.17
21185;BME280;18176;49.502;11.754;2023-03-14T19:05:48;95907.94;;;6.59;87.72
21185;BME280;18176;49.502;11.754;2023-03-14T19:09:54;95921.22;;;6.64;87.61
21185;BME280;18176;49.502;11.754;2023-03-14T19:13:56;95921.00;;;6.77;86.66
21185;BME280;18176;49.502;11.754;2023-03-14T19:17:58;95947.78;;;6.85;86.71
21185;BME280;18176;49.502;11.754;2023-03-14T19:22:01;95958.31;;;6.74;87.44
21185;BME280;18176;49.502;11.754;2023-03-14T19:26:07;95955.09;;;6.83;87.43
21185;BME280;18176;49.502;11.754;2023-03-14T19:30:14;95971.22;;;6.64;87.84
21185;BME280;18176;49.502;11.754;2023-03-14T19:34:16;95955.31;;;6.59;86.78
21185;BME280;18176;49.502;11.754;2023-03-14T19:38:19;95973.41;;;6.90;86.48
21185;BME280;18176;49.502;11.754;2023-03-14T19:42:24;95964.81;;;6.83;86.47
21185;BME280;18176;49.502;11.754;2023-03-14T19:46:27;95980.63;;;6.94;87.39
21185;BME280;18176;49.502;11.754;2023-03-14T19:50:32;95981.19;;;6.85;88.15
21185;BME280;18176;49.502;11.754;2023-03-14T19:54:36;95991.72;;;6.62;87.46
21185;BME280;18176;49.502;11.754;2023-03-14T19:58:42;95998.59;;;6.63;88.00
21185;BME280;18176;49.502;11.754;2023-03-14T20:02:44;96015.63;;;6.49;87.89
21185;BME280;18176;49.502;11.754;2023-03-14T20:06:45;96036.19;;;6.10;88.15
21185;BME280;18176;49.502;11.754;2023-03-14T20:10:46;96038.00;;;5.98;87.93
21185;BME280;18176;49.502;11.754;2023-03-14T20:14:51;96035.09;;;5.70;87.98
21185;BME280;18176;49.502;11.754;2023-03-14T20:18:52;96035.25;;;5.57;88.11
21185;BME280;18176;49.502;11.754;2023-03-14T20:22:52;96054.97;;;5.66;88.68
21185;BME280;18176;49.502;11.754;2023-03-14T20:26:53;96039.00;;;5.79;87.90
21185;BME280;18176;49.502;11.754;2023-03-14T20:30:57;96043.25;;;5.62;88.57
21185;BME280;18176;49.502;11.754;2023-03-14T20:34:58;96048.50;;;5.62;89.03
21185;BME280;18176;49.502;11.754;2023-03-14T20:38:58;96032.47;;;5.52;89.19
21185;BME280;18176;49.502;11.754;2023-03-14T20:42:59;96058.81;;;5.63;89.84
21185;BME280;18176;49.502;11.754;2023-03-14T20:47:03;96059.19;;;5.49;90.51
21185;BME280;18176;49.502;11.754;2023-03-14T20:51:05;96082.25;;;5.65;90.33
21185;BME280;18176;49.502;11.754;2023-03-14T20:55:07;96067.22;;;5.54;90.50
21185;BME280;18176;49.502;11.754;2023-03-14T20:59:07;96076.25;;;5.58;90.78
21185;BME280;18176;49.502;11.754;2023-03-14T21:03:10;96079.75;;;5.70;89.84
21185;BME280;18176;49.502;11.754;2023-03-14T21:07:11;96079.44;;;5.78;89.64
21185;BME280;18176;49.502;11.754;2023-03-14T21:11:13;96073.94;;;5.68;90.17
21185;BME280;18176;49.502;11.754;2023-03-14T21:15:16;96083.28;;;5.64;89.68
21185;BME280;18176;49.502;11.754;2023-03-14T21:19:22;96087.50;;;5.65;90.00
21185;BME280;18176;49.502;11.754;2023-03-14T21:23:27;96069.09;;;5.65;89.11
21185;BME280;18176;49.502;11.754;2023-03-14T21:27:30;96081.66;;;5.63;89.13
21185;BME280;18176;49.502;11.754;2023-03-14T21:31:34;96091.00;;;5.77;89.51